sensor_id;sensor_type;location;lat;lon;timestamp;temperature;humidity
46754;DHT22;32500;50.620;3.400;2022-09-16T00:02:12;22.70;60.00
46754;DHT22;32500;50.620;3.400;2022-09-16T00:04:39;22.70;60.00
46754;DHT22;32500;50.620;3.400;2022-09-16T00:07:04;22.80;60.10
46754;DHT22;32500;50.620;3.400;2022-09-16T00:09:30;22.70;60.00
46754;DHT22;32500;50.620;3.400;2022-09-16T00:11:56;22.70;59.90
46754;DHT22;32500;50.620;3.400;2022-09-16T00:14:21;22.70;59.90
46754;DHT22;32500;50.620;3.400;2022-09-16T00:16:47;22.70;60.00
46754;DHT22;32500;50.620;3.400;2022-09-16T00:19:13;22.70;60.80
46754;DHT22;32500;50.620;3.400;2022-09-16T00:21:38;22.70;60.00
46754;DHT22;32500;50.620;3.400;2022-09-16T00:24:04;22.70;60.00
46754;DHT22;32500;50.620;3.400;2022-09-16T00:26:30;22.70;60.00
46754;DHT22;32500;50.620;3.400;2022-09-16T00:28:55;22.70;60.00
46754;DHT22;32500;50.620;3.400;2022-09-16T00:31:21;22.70;59.90
46754;DHT22;32500;50.620;3.400;2022-09-16T00:33:47;22.70;60.00
46754;DHT22;32500;50.620;3.400;2022-09-16T00:36:19;22.70;60.00
46754;DHT22;32500;50.620;3.400;2022-09-16T00:38:44;22.70;60.00
46754;DHT22;32500;50.620;3.400;2022-09-16T00:41:18;22.60;59.90
46754;DHT22;32500;50.620;3.400;2022-09-16T00:43:49;22.60;60.00
46754;DHT22;32500;50.620;3.400;2022-09-16T00:46:15;22.60;60.10
46754;DHT22;32500;50.620;3.400;2022-09-16T00:48:43;22.60;60.20
46754;DHT22;32500;50.620;3.400;2022-09-16T00:51:10;22.50;60.10
46754;DHT22;32500;50.620;3.400;2022-09-16T00:53:40;22.60;60.10
46754;DHT22;32500;50.620;3.400;2022-09-16T00:56:08;22.50;60.00
46754;DHT22;32500;50.620;3.400;2022-09-16T01:01:07;22.50;60.00
46754;DHT22;32500;50.620;3.400;2022-09-16T01:03:45;22.50;60.00
46754;DHT22;32500;50.620;3.400;2022-09-16T01:06:13;22.50;60.10
46754;DHT22;32500;50.620;3.400;2022-09-16T01:08:41;22.50;60.00
46754;DHT22;32500;50.620;3.400;2022-09-16T01:11:07;22.60;60.10
46754;DHT22;32500;50.620;3.400;2022-09-16T01:13:33;22.60;60.10
46754;DHT22;32500;50.620;3.400;2022-09-16T01:21:41;22.50;60.10
46754;DHT22;32500;50.620;3.400;2022-09-16T01:27:24;22.40;60.30
46754;DHT22;32500;50.620;3.400;2022-09-16T01:30:16;22.40;60.20
46754;DHT22;32500;50.620;3.400;2022-09-16T01:38:28;22.40;60.30
46754;DHT22;32500;50.620;3.400;2022-09-16T01:41:19;22.30;60.30
46754;DHT22;32500;50.620;3.400;2022-09-16T01:46:36;22.30;60.40
46754;DHT22;32500;50.620;3.400;2022-09-16T01:49:16;22.30;60.30
46754;DHT22;32500;50.620;3.400;2022-09-16T01:51:59;22.30;60.30
46754;DHT22;32500;50.620;3.400;2022-09-16T01:54:45;22.30;60.30
46754;DHT22;32500;50.620;3.400;2022-09-16T01:57:38;22.30;60.30
46754;DHT22;32500;50.620;3.400;2022-09-16T02:00:09;22.30;60.30
46754;DHT22;32500;50.620;3.400;2022-09-16T02:02:52;22.30;60.40
46754;DHT22;32500;50.620;3.400;2022-09-16T02:05:44;22.30;60.40
46754;DHT22;32500;50.620;3.400;2022-09-16T02:08:19;22.30;60.40
46754;DHT22;32500;50.620;3.400;2022-09-16T02:11:01;22.20;60.40
46754;DHT22;32500;50.620;3.400;2022-09-16T02:13:33;22.20;60.50
46754;DHT22;32500;50.620;3.400;2022-09-16T02:16:31;22.20;60.40
46754;DHT22;32500;50.620;3.400;2022-09-16T02:19:03;22.20;60.50
46754;DHT22;32500;50.620;3.400;2022-09-16T02:21:33;22.10;60.50
46754;DHT22;32500;50.620;3.400;2022-09-16T02:24:04;22.10;60.40
46754;DHT22;32500;50.620;3.400;2022-09-16T02:26:38;22.20;60.40
46754;DHT22;32500;50.620;3.400;2022-09-16T02:29:12;22.20;60.30
46754;DHT22;32500;50.620;3.400;2022-09-16T02:31:41;22.10;60.30
46754;DHT22;32500;50.620;3.400;2022-09-16T02:34:14;22.20;60.50
46754;DHT22;32500;50.620;3.400;2022-09-16T02:36:43;22.10;60.40
46754;DHT22;32500;50.620;3.400;2022-09-16T02:39:14;22.10;60.40
46754;DHT22;32500;50.620;3.400;2022-09-16T02:41:42;22.10;60.50
46754;DHT22;32500;50.620;3.400;2022-09-16T02:44:08;22.00;60.40
46754;DHT22;32500;50.620;3.400;2022-09-16T02:49:26;22.00;60.60
46754;DHT22;32500;50.620;3.400;2022-09-16T02:57:22;22.00;60.40
46754;DHT22;32500;50.620;3.400;2022-09-16T02:59:48;22.00;60.40
46754;DHT22;32500;50.620;3.400;2022-09-16T03:02:14;22.00;60.30
46754;DHT22;32500;50.620;3.400;2022-09-16T03:04:40;22.00;60.30
46754;DHT22;32500;50.620;3.400;2022-09-16T03:07:08;22.00;60.40
46754;DHT22;32500;50.620;3.400;2022-09-16T03:09:37;22.00;60.40
46754;DHT22;32500;50.620;3.400;2022-09-16T03:30:24;21.90;60.50
46754;DHT22;32500;50.620;3.400;2022-09-16T03:32:56;21.90;60.40
46754;DHT22;32500;50.620;3.400;2022-09-16T03:35:30;21.90;60.30
46754;DHT22;32500;50.620;3.400;2022-09-16T03:37:58;21.80;60.40
46754;DHT22;32500;50.620;3.400;2022-09-16T03:40:27;21.90;60.30
46754;DHT22;32500;50.620;3.400;2022-09-16T03:42:54;21.80;60.30
46754;DHT22;32500;50.620;3.400;2022-09-16T03:45:22;21.80;60.30
46754;DHT22;32500;50.620;3.400;2022-09-16T03:47:50;21.80;60.30
46754;DHT22;32500;50.620;3.400;2022-09-16T03:50:17;21.80;60.40
46754;DHT22;32500;50.620;3.400;2022-09-16T03:52:43;21.70;60.30
46754;DHT22;32500;50.620;3.400;2022-09-16T03:55:09;21.80;60.30
46754;DHT22;32500;50.620;3.400;2022-09-16T03:57:36;21.80;60.50
46754;DHT22;32500;50.620;3.400;2022-09-16T04:00:03;21.70;60.40
46754;DHT22;32500;50.620;3.400;2022-09-16T04:02:29;21.70;60.30
46754;DHT22;32500;50.620;3.400;2022-09-16T04:04:54;21.70;60.30
46754;DHT22;32500;50.620;3.400;2022-09-16T04:07:20;21.70;60.20
46754;DHT22;32500;50.620;3.400;2022-09-16T04:09:46;21.70;60.20
46754;DHT22;32500;50.620;3.400;2022-09-16T04:12:11;21.70;60.40
46754;DHT22;32500;50.620;3.400;2022-09-16T04:14:38;21.70;60.30
46754;DHT22;32500;50.620;3.400;2022-09-16T04:17:03;21.70;60.40
46754;DHT22;32500;50.620;3.400;2022-09-16T04:19:29;21.70;60.50
46754;DHT22;32500;50.620;3.400;2022-09-16T04:21:55;21.70;60.40
46754;DHT22;32500;50.620;3.400;2022-09-16T04:24:21;21.60;60.40
46754;DHT22;32500;50.620;3.400;2022-09-16T04:26:46;21.60;60.50
46754;DHT22;32500;50.620;3.400;2022-09-16T04:29:12;21.60;60.50
46754;DHT22;32500;50.620;3.400;2022-09-16T04:31:38;21.60;60.30
46754;DHT22;32500;50.620;3.400;2022-09-16T04:34:04;21.60;60.50
46754;DHT22;32500;50.620;3.400;2022-09-16T04:36:30;21.60;60.60
46754;DHT22;32500;50.620;3.400;2022-09-16T04:38:57;21.60;60.60
46754;DHT22;32500;50.620;3.400;2022-09-16T04:41:24;21.50;60.90
46754;DHT22;32500;50.620;3.400;2022-09-16T04:43:52;21.50;61.50
46754;DHT22;32500;50.620;3.400;2022-09-16T04:46:18;21.50;60.50
46754;DHT22;32500;50.620;3.400;2022-09-16T04:48:48;21.60;60.50
46754;DHT22;32500;50.620;3.400;2022-09-16T04:51:14;21.60;60.60
46754;DHT22;32500;50.620;3.400;2022-09-16T04:53:41;21.60;60.60
46754;DHT22;32500;50.620;3.400;2022-09-16T04:56:20;21.50;60.60
46754;DHT22;32500;50.620;3.400;2022-09-16T04:58:48;21.50;60.80
46754;DHT22;32500;50.620;3.400;2022-09-16T05:01:17;21.50;60.90
46754;DHT22;32500;50.620;3.400;2022-09-16T05:03:45;21.50;60.70
46754;DHT22;32500;50.620;3.400;2022-09-16T05:06:17;21.50;60.40
46754;DHT22;32500;50.620;3.400;2022-09-16T05:08:42;21.60;60.30
46754;DHT22;32500;50.620;3.400;2022-09-16T05:11:14;21.60;60.30
46754;DHT22;32500;50.620;3.400;2022-09-16T05:13:40;21.60;60.50
46754;DHT22;32500;50.620;3.400;2022-09-16T05:16:14;21.50;60.60
46754;DHT22;32500;50.620;3.400;2022-09-16T05:18:41;21.50;60.60
46754;DHT22;32500;50.620;3.400;2022-09-16T05:21:10;21.50;60.80
46754;DHT22;32500;50.620;3.400;2022-09-16T05:23:37;21.40;60.70
46754;DHT22;32500;50.620;3.400;2022-09-16T05:26:05;21.50;60.60
46754;DHT22;32500;50.620;3.400;2022-09-16T05:28:33;21.50;61.40
46754;DHT22;32500;50.620;3.400;2022-09-16T05:31:14;21.50;60.30
46754;DHT22;32500;50.620;3.400;2022-09-16T05:33:42;21.60;60.30
46754;DHT22;32500;50.620;3.400;2022-09-16T05:36:13;21.60;60.40
46754;DHT22;32500;50.620;3.400;2022-09-16T05:38:39;21.60;60.20
46754;DHT22;32500;50.620;3.400;2022-09-16T05:41:05;21.70;59.90
46754;DHT22;32500;50.620;3.400;2022-09-16T05:43:32;21.70;60.10
46754;DHT22;32500;50.620;3.400;2022-09-16T05:45:58;21.70;60.30
46754;DHT22;32500;50.620;3.400;2022-09-16T05:48:24;21.70;60.20
46754;DHT22;32500;50.620;3.400;2022-09-16T05:50:54;21.70;60.10
46754;DHT22;32500;50.620;3.400;2022-09-16T05:53:21;21.70;60.20
46754;DHT22;32500;50.620;3.400;2022-09-16T05:56:04;21.60;60.30
46754;DHT22;32500;50.620;3.400;2022-09-16T05:58:30;21.60;60.30
46754;DHT22;32500;50.620;3.400;2022-09-16T06:01:08;21.60;60.20
46754;DHT22;32500;50.620;3.400;2022-09-16T06:03:35;21.60;60.30
46754;DHT22;32500;50.620;3.400;2022-09-16T06:08:40;21.50;60.10
46754;DHT22;32500;50.620;3.400;2022-09-16T06:11:09;21.60;60.10
46754;DHT22;32500;50.620;3.400;2022-09-16T06:13:35;21.50;60.20
46754;DHT22;32500;50.620;3.400;2022-09-16T06:16:03;21.50;60.30
46754;DHT22;32500;50.620;3.400;2022-09-16T06:18:29;21.50;60.30
46754;DHT22;32500;50.620;3.400;2022-09-16T06:20:56;21.50;60.20
46754;DHT22;32500;50.620;3.400;2022-09-16T06:23:23;21.50;60.20
46754;DHT22;32500;50.620;3.400;2022-09-16T06:25:57;21.50;60.20
46754;DHT22;32500;50.620;3.400;2022-09-16T06:28:24;21.50;60.20
46754;DHT22;32500;50.620;3.400;2022-09-16T06:31:10;21.50;60.00
46754;DHT22;32500;50.620;3.400;2022-09-16T06:33:36;21.60;60.00
46754;DHT22;32500;50.620;3.400;2022-09-16T06:36:05;21.60;59.90
46754;DHT22;32500;50.620;3.400;2022-09-16T06:38:32;21.60;59.80
46754;DHT22;32500;50.620;3.400;2022-09-16T06:41:03;21.60;59.80
46754;DHT22;32500;50.620;3.400;2022-09-16T06:43:29;21.60;59.80
46754;DHT22;32500;50.620;3.400;2022-09-16T06:46:23;21.60;59.70
46754;DHT22;32500;50.620;3.400;2022-09-16T06:48:51;21.60;59.70
46754;DHT22;32500;50.620;3.400;2022-09-16T06:51:27;21.70;59.70
46754;DHT22;32500;50.620;3.400;2022-09-16T06:53:58;21.70;59.40
46754;DHT22;32500;50.620;3.400;2022-09-16T06:56:25;21.70;59.30
46754;DHT22;32500;50.620;3.400;2022-09-16T06:58:51;21.80;59.30
46754;DHT22;32500;50.620;3.400;2022-09-16T07:01:25;21.80;59.10
46754;DHT22;32500;50.620;3.400;2022-09-16T07:03:53;21.80;58.90
46754;DHT22;32500;50.620;3.400;2022-09-16T07:06:20;21.80;58.90
46754;DHT22;32500;50.620;3.400;2022-09-16T07:08:46;21.80;58.80
46754;DHT22;32500;50.620;3.400;2022-09-16T07:11:17;21.90;58.80
46754;DHT22;32500;50.620;3.400;2022-09-16T07:13:44;21.90;58.90
46754;DHT22;32500;50.620;3.400;2022-09-16T07:16:16;21.90;58.70
46754;DHT22;32500;50.620;3.400;2022-09-16T07:18:43;21.90;58.70
46754;DHT22;32500;50.620;3.400;2022-09-16T07:21:13;21.90;58.60
46754;DHT22;32500;50.620;3.400;2022-09-16T07:23:40;21.90;58.60
46754;DHT22;32500;50.620;3.400;2022-09-16T07:26:15;21.90;58.50
46754;DHT22;32500;50.620;3.400;2022-09-16T07:28:42;22.00;58.70
46754;DHT22;32500;50.620;3.400;2022-09-16T07:31:10;21.90;58.60
46754;DHT22;32500;50.620;3.400;2022-09-16T07:33:44;22.00;58.60
46754;DHT22;32500;50.620;3.400;2022-09-16T07:36:11;21.90;58.40
46754;DHT22;32500;50.620;3.400;2022-09-16T07:38:37;22.00;58.60
46754;DHT22;32500;50.620;3.400;2022-09-16T07:41:19;22.00;58.50
46754;DHT22;32500;50.620;3.400;2022-09-16T07:43:45;22.00;58.60
46754;DHT22;32500;50.620;3.400;2022-09-16T07:46:13;22.00;58.60
46754;DHT22;32500;50.620;3.400;2022-09-16T07:48:42;22.00;58.50
46754;DHT22;32500;50.620;3.400;2022-09-16T07:51:16;22.00;58.50
46754;DHT22;32500;50.620;3.400;2022-09-16T07:53:42;22.00;58.50
46754;DHT22;32500;50.620;3.400;2022-09-16T07:56:20;22.10;58.50
46754;DHT22;32500;50.620;3.400;2022-09-16T07:58:47;22.10;58.40
46754;DHT22;32500;50.620;3.400;2022-09-16T08:01:15;22.10;58.30
46754;DHT22;32500;50.620;3.400;2022-09-16T08:03:42;22.20;58.00
46754;DHT22;32500;50.620;3.400;2022-09-16T08:06:13;22.30;57.80
46754;DHT22;32500;50.620;3.400;2022-09-16T08:08:40;22.40;57.70
46754;DHT22;32500;50.620;3.400;2022-09-16T08:11:07;22.40;57.50
46754;DHT22;32500;50.620;3.400;2022-09-16T08:13:34;22.30;57.40
46754;DHT22;32500;50.620;3.400;2022-09-16T08:16:03;22.40;57.50
46754;DHT22;32500;50.620;3.400;2022-09-16T08:18:30;22.40;57.30
46754;DHT22;32500;50.620;3.400;2022-09-16T08:20:55;22.40;57.30
46754;DHT22;32500;50.620;3.400;2022-09-16T08:23:22;22.50;57.40
46754;DHT22;32500;50.620;3.400;2022-09-16T08:25:55;22.40;57.40
46754;DHT22;32500;50.620;3.400;2022-09-16T08:28:22;22.50;57.50
46754;DHT22;32500;50.620;3.400;2022-09-16T08:30:47;22.50;57.50
46754;DHT22;32500;50.620;3.400;2022-09-16T08:33:13;22.50;57.60
46754;DHT22;32500;50.620;3.400;2022-09-16T08:35:38;22.50;57.60
46754;DHT22;32500;50.620;3.400;2022-09-16T08:38:04;22.50;57.70
46754;DHT22;32500;50.620;3.400;2022-09-16T08:40:34;22.50;57.80
46754;DHT22;32500;50.620;3.400;2022-09-16T08:43:20;22.40;57.70
46754;DHT22;32500;50.620;3.400;2022-09-16T08:46:08;22.40;57.60
46754;DHT22;32500;50.620;3.400;2022-09-16T08:48:44;22.50;57.20
46754;DHT22;32500;50.620;3.400;2022-09-16T08:51:18;22.50;56.80
46754;DHT22;32500;50.620;3.400;2022-09-16T08:54:33;22.60;56.90
46754;DHT22;32500;50.620;3.400;2022-09-16T08:56:53;22.70;57.00
46754;DHT22;32500;50.620;3.400;2022-09-16T08:59:23;22.60;57.20
46754;DHT22;32500;50.620;3.400;2022-09-16T09:04:29;22.60;57.80
46754;DHT22;32500;50.620;3.400;2022-09-16T09:13:07;22.60;57.40
46754;DHT22;32500;50.620;3.400;2022-09-16T09:15:42;22.60;57.30
46754;DHT22;32500;50.620;3.400;2022-09-16T09:18:23;22.60;57.20
46754;DHT22;32500;50.620;3.400;2022-09-16T09:24:08;22.60;57.10
46754;DHT22;32500;50.620;3.400;2022-09-16T09:29:42;22.40;57.90
46754;DHT22;32500;50.620;3.400;2022-09-16T09:32:15;22.50;57.90
46754;DHT22;32500;50.620;3.400;2022-09-16T09:40:52;22.70;57.80
46754;DHT22;32500;50.620;3.400;2022-09-16T09:43:50;22.70;57.70
46754;DHT22;32500;50.620;3.400;2022-09-16T09:46:31;22.70;58.00
46754;DHT22;32500;50.620;3.400;2022-09-16T09:49:23;22.70;58.00
46754;DHT22;32500;50.620;3.400;2022-09-16T09:54:36;22.70;58.50
46754;DHT22;32500;50.620;3.400;2022-09-16T09:57:13;22.70;58.50
46754;DHT22;32500;50.620;3.400;2022-09-16T09:59:57;22.70;58.80
46754;DHT22;32500;50.620;3.400;2022-09-16T10:02:25;22.80;59.00
46754;DHT22;32500;50.620;3.400;2022-09-16T10:04:50;22.70;58.70
46754;DHT22;32500;50.620;3.400;2022-09-16T10:07:18;22.80;58.40
46754;DHT22;32500;50.620;3.400;2022-09-16T10:10:03;23.30;57.60
46754;DHT22;32500;50.620;3.400;2022-09-16T10:12:36;22.90;58.20
46754;DHT22;32500;50.620;3.400;2022-09-16T10:15:03;22.60;58.90
46754;DHT22;32500;50.620;3.400;2022-09-16T10:17:30;22.40;59.50
46754;DHT22;32500;50.620;3.400;2022-09-16T10:20:03;22.30;59.60
46754;DHT22;32500;50.620;3.400;2022-09-16T10:22:33;22.30;59.80
46754;DHT22;32500;50.620;3.400;2022-09-16T10:25:04;22.30;59.90
46754;DHT22;32500;50.620;3.400;2022-09-16T10:27:34;22.30;59.80
46754;DHT22;32500;50.620;3.400;2022-09-16T10:30:15;22.30;59.90
46754;DHT22;32500;50.620;3.400;2022-09-16T10:33:00;22.30;59.90
46754;DHT22;32500;50.620;3.400;2022-09-16T10:35:29;22.40;59.90
46754;DHT22;32500;50.620;3.400;2022-09-16T10:38:04;22.40;60.00
46754;DHT22;32500;50.620;3.400;2022-09-16T10:40:31;22.40;59.90
46754;DHT22;32500;50.620;3.400;2022-09-16T10:43:03;22.40;60.00
46754;DHT22;32500;50.620;3.400;2022-09-16T10:45:29;22.40;60.00
46754;DHT22;32500;50.620;3.400;2022-09-16T10:48:01;22.40;59.90
46754;DHT22;32500;50.620;3.400;2022-09-16T10:50:28;22.40;60.40
46754;DHT22;32500;50.620;3.400;2022-09-16T10:52:54;22.50;60.40
46754;DHT22;32500;50.620;3.400;2022-09-16T10:55:24;22.50;60.10
46754;DHT22;32500;50.620;3.400;2022-09-16T10:57:51;22.50;60.10
46754;DHT22;32500;50.620;3.400;2022-09-16T11:00:22;22.50;60.40
46754;DHT22;32500;50.620;3.400;2022-09-16T11:05:30;22.50;60.00
46754;DHT22;32500;50.620;3.400;2022-09-16T11:11:03;22.40;59.90
46754;DHT22;32500;50.620;3.400;2022-09-16T11:16:20;22.40;59.70
46754;DHT22;32500;50.620;3.400;2022-09-16T11:19:12;22.50;59.70
46754;DHT22;32500;50.620;3.400;2022-09-16T11:30:16;22.60;58.90
46754;DHT22;32500;50.620;3.400;2022-09-16T11:38:28;22.50;59.10
46754;DHT22;32500;50.620;3.400;2022-09-16T11:44:11;22.50;59.30
46754;DHT22;32500;50.620;3.400;2022-09-16T11:47:04;22.50;59.20
46754;DHT22;32500;50.620;3.400;2022-09-16T11:55:26;22.60;59.10
46754;DHT22;32500;50.620;3.400;2022-09-16T11:57:58;22.60;59.30
46754;DHT22;32500;50.620;3.400;2022-09-16T12:00:28;22.60;59.20
46754;DHT22;32500;50.620;3.400;2022-09-16T12:03:09;22.60;59.20
46754;DHT22;32500;50.620;3.400;2022-09-16T12:05:43;22.60;59.30
46754;DHT22;32500;50.620;3.400;2022-09-16T12:11:19;22.50;59.40
46754;DHT22;32500;50.620;3.400;2022-09-16T12:13:56;22.60;59.50
46754;DHT22;32500;50.620;3.400;2022-09-16T12:19:10;22.60;59.40
46754;DHT22;32500;50.620;3.400;2022-09-16T12:21:45;22.60;59.40
46754;DHT22;32500;50.620;3.400;2022-09-16T12:26:59;22.70;59.50
46754;DHT22;32500;50.620;3.400;2022-09-16T12:32:56;22.70;59.40
46754;DHT22;32500;50.620;3.400;2022-09-16T12:35:36;22.70;59.50
46754;DHT22;32500;50.620;3.400;2022-09-16T12:38:03;22.60;59.50
46754;DHT22;32500;50.620;3.400;2022-09-16T12:43:47;22.60;59.40
46754;DHT22;32500;50.620;3.400;2022-09-16T13:00:22;22.60;59.00
46754;DHT22;32500;50.620;3.400;2022-09-16T13:05:26;22.60;58.90
46754;DHT22;32500;50.620;3.400;2022-09-16T13:07:54;22.60;59.00
46754;DHT22;32500;50.620;3.400;2022-09-16T13:10:30;22.60;58.90
46754;DHT22;32500;50.620;3.400;2022-09-16T13:13:00;22.60;58.60
46754;DHT22;32500;50.620;3.400;2022-09-16T13:15:37;22.60;58.40
46754;DHT22;32500;50.620;3.400;2022-09-16T13:20:39;22.60;58.30
46754;DHT22;32500;50.620;3.400;2022-09-16T13:23:16;22.60;58.60
46754;DHT22;32500;50.620;3.400;2022-09-16T13:26:04;22.60;58.50
46754;DHT22;32500;50.620;3.400;2022-09-16T13:28:37;22.60;58.30
46754;DHT22;32500;50.620;3.400;2022-09-16T13:33:43;22.90;56.50
46754;DHT22;32500;50.620;3.400;2022-09-16T13:38:52;22.90;55.50
46754;DHT22;32500;50.620;3.400;2022-09-16T13:44:26;22.60;57.20
46754;DHT22;32500;50.620;3.400;2022-09-16T13:46:52;22.60;57.90
46754;DHT22;32500;50.620;3.400;2022-09-16T13:49:21;22.60;58.00
46754;DHT22;32500;50.620;3.400;2022-09-16T13:51:49;22.60;57.90
46754;DHT22;32500;50.620;3.400;2022-09-16T13:54:26;22.70;57.90
46754;DHT22;32500;50.620;3.400;2022-09-16T14:10:30;22.90;56.00
46754;DHT22;32500;50.620;3.400;2022-09-16T14:13:12;22.90;55.80
46754;DHT22;32500;50.620;3.400;2022-09-16T14:15:52;22.90;55.40
46754;DHT22;32500;50.620;3.400;2022-09-16T14:18:22;22.90;54.90
46754;DHT22;32500;50.620;3.400;2022-09-16T14:23:24;22.70;55.00
46754;DHT22;32500;50.620;3.400;2022-09-16T14:25:50;22.60;55.40
46754;DHT22;32500;50.620;3.400;2022-09-16T14:28:24;22.50;55.60
46754;DHT22;32500;50.620;3.400;2022-09-16T14:30:58;22.50;55.80
46754;DHT22;32500;50.620;3.400;2022-09-16T14:33:32;22.50;56.30
46754;DHT22;32500;50.620;3.400;2022-09-16T14:36:06;22.50;56.80
46754;DHT22;32500;50.620;3.400;2022-09-16T14:38:53;22.40;56.90
46754;DHT22;32500;50.620;3.400;2022-09-16T14:43:52;22.40;56.90
46754;DHT22;32500;50.620;3.400;2022-09-16T14:46:18;22.50;57.20
46754;DHT22;32500;50.620;3.400;2022-09-16T14:48:44;22.60;57.20
46754;DHT22;32500;50.620;3.400;2022-09-16T14:51:22;22.50;57.00
46754;DHT22;32500;50.620;3.400;2022-09-16T14:53:57;22.50;57.20
46754;DHT22;32500;50.620;3.400;2022-09-16T14:56:24;22.50;56.90
46754;DHT22;32500;50.620;3.400;2022-09-16T14:58:51;22.50;57.00
46754;DHT22;32500;50.620;3.400;2022-09-16T15:01:25;22.60;57.50
46754;DHT22;32500;50.620;3.400;2022-09-16T15:04:14;22.60;56.40
46754;DHT22;32500;50.620;3.400;2022-09-16T15:06:47;22.50;56.30
46754;DHT22;32500;50.620;3.400;2022-09-16T15:09:31;22.50;57.20
46754;DHT22;32500;50.620;3.400;2022-09-16T15:11:59;22.40;57.70
46754;DHT22;32500;50.620;3.400;2022-09-16T15:14:26;22.40;58.10
46754;DHT22;32500;50.620;3.400;2022-09-16T15:17:00;22.40;58.60
46754;DHT22;32500;50.620;3.400;2022-09-16T15:19:36;22.40;58.70
46754;DHT22;32500;50.620;3.400;2022-09-16T15:22:13;22.40;59.00
46754;DHT22;32500;50.620;3.400;2022-09-16T15:24:40;22.50;59.50
46754;DHT22;32500;50.620;3.400;2022-09-16T15:27:07;22.40;59.60
46754;DHT22;32500;50.620;3.400;2022-09-16T15:29:34;22.50;58.60
46754;DHT22;32500;50.620;3.400;2022-09-16T15:32:18;22.50;58.30
46754;DHT22;32500;50.620;3.400;2022-09-16T15:34:46;22.60;57.80
46754;DHT22;32500;50.620;3.400;2022-09-16T15:37:38;22.70;57.40
46754;DHT22;32500;50.620;3.400;2022-09-16T15:43:29;22.70;56.50
46754;DHT22;32500;50.620;3.400;2022-09-16T15:46:02;22.70;56.60
46754;DHT22;32500;50.620;3.400;2022-09-16T15:48:34;22.70;56.50
46754;DHT22;32500;50.620;3.400;2022-09-16T15:51:09;22.60;56.40
46754;DHT22;32500;50.620;3.400;2022-09-16T15:53:45;22.60;56.50
46754;DHT22;32500;50.620;3.400;2022-09-16T15:58:56;22.40;57.20
46754;DHT22;32500;50.620;3.400;2022-09-16T16:01:48;22.30;57.60
46754;DHT22;32500;50.620;3.400;2022-09-16T16:04:23;22.20;57.80
46754;DHT22;32500;50.620;3.400;2022-09-16T16:06:55;22.10;57.90
46754;DHT22;32500;50.620;3.400;2022-09-16T16:09:28;22.00;58.30
46754;DHT22;32500;50.620;3.400;2022-09-16T16:11:55;22.00;58.70
46754;DHT22;32500;50.620;3.400;2022-09-16T16:14:22;22.00;58.80
46754;DHT22;32500;50.620;3.400;2022-09-16T16:16:49;22.00;58.70
46754;DHT22;32500;50.620;3.400;2022-09-16T16:19:15;22.00;59.00
46754;DHT22;32500;50.620;3.400;2022-09-16T16:21:41;21.90;59.40
46754;DHT22;32500;50.620;3.400;2022-09-16T16:24:10;21.90;59.30
46754;DHT22;32500;50.620;3.400;2022-09-16T16:26:36;21.90;59.40
46754;DHT22;32500;50.620;3.400;2022-09-16T16:29:02;21.90;59.70
46754;DHT22;32500;50.620;3.400;2022-09-16T16:31:28;21.80;59.70
46754;DHT22;32500;50.620;3.400;2022-09-16T16:33:54;21.90;59.90
46754;DHT22;32500;50.620;3.400;2022-09-16T16:36:20;21.90;59.90
46754;DHT22;32500;50.620;3.400;2022-09-16T16:38:47;21.90;59.90
46754;DHT22;32500;50.620;3.400;2022-09-16T16:41:18;21.90;60.10
46754;DHT22;32500;50.620;3.400;2022-09-16T16:43:44;21.80;60.30
46754;DHT22;32500;50.620;3.400;2022-09-16T16:46:10;21.80;60.40
46754;DHT22;32500;50.620;3.400;2022-09-16T16:48:36;21.80;60.30
46754;DHT22;32500;50.620;3.400;2022-09-16T16:51:05;21.80;60.30
46754;DHT22;32500;50.620;3.400;2022-09-16T16:53:32;21.80;60.40
46754;DHT22;32500;50.620;3.400;2022-09-16T16:58:30;21.80;60.50
46754;DHT22;32500;50.620;3.400;2022-09-16T17:01:12;21.70;60.60
46754;DHT22;32500;50.620;3.400;2022-09-16T17:03:39;21.70;60.70
46754;DHT22;32500;50.620;3.400;2022-09-16T17:06:08;21.70;60.70
46754;DHT22;32500;50.620;3.400;2022-09-16T17:08:34;21.70;61.20
46754;DHT22;32500;50.620;3.400;2022-09-16T17:13:39;21.80;60.60
46754;DHT22;32500;50.620;3.400;2022-09-16T17:16:05;21.80;60.90
46754;DHT22;32500;50.620;3.400;2022-09-16T17:18:36;21.70;60.80
46754;DHT22;32500;50.620;3.400;2022-09-16T17:23:32;21.80;60.80
46754;DHT22;32500;50.620;3.400;2022-09-16T17:25:58;21.80;60.60
46754;DHT22;32500;50.620;3.400;2022-09-16T17:28:24;21.80;60.30
46754;DHT22;32500;50.620;3.400;2022-09-16T17:30:50;21.80;60.30
46754;DHT22;32500;50.620;3.400;2022-09-16T17:33:15;21.80;60.30
46754;DHT22;32500;50.620;3.400;2022-09-16T17:35:41;21.90;60.50
46754;DHT22;32500;50.620;3.400;2022-09-16T17:38:07;21.80;61.30
46754;DHT22;32500;50.620;3.400;2022-09-16T17:40:34;21.90;61.50
46754;DHT22;32500;50.620;3.400;2022-09-16T17:42:59;21.90;61.60
46754;DHT22;32500;50.620;3.400;2022-09-16T17:45:25;21.80;62.00
46754;DHT22;32500;50.620;3.400;2022-09-16T17:47:51;21.80;62.10
46754;DHT22;32500;50.620;3.400;2022-09-16T17:50:17;21.80;61.90
46754;DHT22;32500;50.620;3.400;2022-09-16T17:52:43;21.80;62.30
46754;DHT22;32500;50.620;3.400;2022-09-16T17:55:10;21.80;61.50
46754;DHT22;32500;50.620;3.400;2022-09-16T17:57:36;21.90;61.30
46754;DHT22;32500;50.620;3.400;2022-09-16T18:00:03;21.80;61.00
46754;DHT22;32500;50.620;3.400;2022-09-16T18:02:29;21.80;61.20
46754;DHT22;32500;50.620;3.400;2022-09-16T18:04:55;21.70;61.50
46754;DHT22;32500;50.620;3.400;2022-09-16T18:07:21;21.70;61.50
46754;DHT22;32500;50.620;3.400;2022-09-16T18:09:47;21.70;61.40
46754;DHT22;32500;50.620;3.400;2022-09-16T18:12:13;21.70;61.00
46754;DHT22;32500;50.620;3.400;2022-09-16T18:14:39;21.80;60.60
46754;DHT22;32500;50.620;3.400;2022-09-16T18:17:04;21.90;60.20
46754;DHT22;32500;50.620;3.400;2022-09-16T18:19:30;21.80;60.10
46754;DHT22;32500;50.620;3.400;2022-09-16T18:21:56;21.80;60.20
46754;DHT22;32500;50.620;3.400;2022-09-16T18:24:21;21.80;59.90
46754;DHT22;32500;50.620;3.400;2022-09-16T18:26:47;21.80;59.90
46754;DHT22;32500;50.620;3.400;2022-09-16T18:29:13;21.70;60.20
46754;DHT22;32500;50.620;3.400;2022-09-16T18:31:42;21.70;60.00
46754;DHT22;32500;50.620;3.400;2022-09-16T18:34:08;21.70;59.90
46754;DHT22;32500;50.620;3.400;2022-09-16T18:36:34;21.70;60.10
46754;DHT22;32500;50.620;3.400;2022-09-16T18:39:03;21.70;60.50
46754;DHT22;32500;50.620;3.400;2022-09-16T18:41:33;21.70;60.30
46754;DHT22;32500;50.620;3.400;2022-09-16T18:44:04;21.60;60.20
46754;DHT22;32500;50.620;3.400;2022-09-16T18:46:34;21.70;59.90
46754;DHT22;32500;50.620;3.400;2022-09-16T18:49:00;21.70;59.70
46754;DHT22;32500;50.620;3.400;2022-09-16T18:51:34;21.70;59.70